Time;durP1;ratioP1;P1;durP2;ratioP2;P2;SDS_P1;SDS_P2;PMS_P1;PMS_P2;Temp;Humidity;BMP_temperature;BMP_pressure;BME280_temperature;BME280_humidity;BME280_pressure;Samples;Min_cycle;Max_cycle;Signal;HPM_P1;HPM_P2
2023/04/29 00:01:22;;;;;;;10.32;6.75;;;12.00;99.90;;;;;;4996309;28;20038;-86
2023/04/29 00:04:09;;;;;;;7.53;6.63;;;12.00;99.90;;;;;;5003159;28;20125;-88
2023/04/29 00:06:57;;;;;;;7.55;6.07;;;12.00;99.90;;;;;;4999687;28;20517;-89
2023/04/29 00:09:44;;;;;;;8.13;6.78;;;12.00;99.90;;;;;;4998460;28;20050;-87
2023/04/29 00:12:32;;;;;;;7.88;6.32;;;12.00;99.90;;;;;;4993610;28;20065;-85
2023/04/29 00:15:21;;;;;;;8.02;6.47;;;12.00;99.90;;;;;;4988092;28;20065;-87
2023/04/29 00:18:09;;;;;;;7.55;5.95;;;12.00;99.90;;;;;;5001091;28;20049;-88
2023/04/29 00:20:58;;;;;;;7.97;6.13;;;11.90;99.90;;;;;;5000964;28;20077;-87
2023/04/29 00:23:46;;;;;;;6.78;6.10;;;11.90;99.90;;;;;;4984654;28;20366;-87
2023/04/29 00:26:36;;;;;;;7.78;6.75;;;11.80;99.90;;;;;;4998974;28;20057;-87
2023/04/29 00:29:24;;;;;;;8.15;6.28;;;11.80;99.90;;;;;;5009478;28;20050;-85
2023/04/29 00:32:11;;;;;;;7.60;6.65;;;11.80;99.90;;;;;;4982409;28;20053;-88
2023/04/29 00:34:58;;;;;;;7.10;6.00;;;11.70;99.90;;;;;;4995905;28;20050;-88
2023/04/29 00:37:48;;;;;;;7.57;6.07;;;11.80;99.90;;;;;;5011791;28;20489;-88
2023/04/29 00:40:35;;;;;;;10.10;6.13;;;11.70;99.90;;;;;;5022350;28;20042;-89
2023/04/29 00:43:25;;;;;;;6.38;5.78;;;11.70;99.90;;;;;;5003802;28;20054;-86
2023/04/29 00:46:17;;;;;;;8.15;5.45;;;11.70;99.90;;;;;;4996516;28;20050;-87
2023/04/29 00:49:08;;;;;;;6.68;5.43;;;11.70;99.90;;;;;;5009191;28;20123;-87
2023/04/29 00:51:58;;;;;;;7.68;5.70;;;11.70;99.90;;;;;;5013651;28;20066;-87
2023/04/29 00:54:45;;;;;;;10.15;5.32;;;11.70;99.90;;;;;;5002239;28;20046;-90
2023/04/29 00:57:33;;;;;;;9.18;6.13;;;11.60;99.90;;;;;;5007409;28;20062;-87
2023/04/29 01:00:23;;;;;;;7.32;5.88;;;11.60;99.90;;;;;;4993405;28;20109;-87
2023/04/29 01:03:11;;;;;;;11.05;6.45;;;11.70;99.90;;;;;;5011237;28;20047;-87
2023/04/29 01:06:34;;;;;;;9.65;6.93;;;11.70;99.90;;;;;;5006197;28;20042;-88
2023/04/29 01:09:49;;;;;;;9.98;6.32;;;11.60;99.90;;;;;;5006655;28;20109;-90
2023/04/29 01:12:39;;;;;;;7.97;6.40;;;11.50;99.90;;;;;;4999530;28;20050;-89
2023/04/29 01:15:31;;;;;;;9.63;6.40;;;11.50;99.90;;;;;;4995928;28;20069;-90
2023/04/29 01:18:44;;;;;;;9.07;6.07;;;11.40;99.90;;;;;;5005013;28;20541;-87
2023/04/29 01:21:31;;;;;;;8.77;6.47;;;11.30;99.90;;;;;;4973289;28;20478;-87
2023/04/29 01:24:19;;;;;;;10.38;6.50;;;11.20;99.90;;;;;;4994511;28;20207;-89
2023/04/29 01:27:28;;;;;;;9.07;6.85;;;11.20;99.90;;;;;;4978458;28;20062;-86
2023/04/29 01:30:49;;;;;;;10.10;7.72;;;11.10;99.90;;;;;;4996904;28;20121;-88
2023/04/29 01:34:10;;;;;;;10.10;7.38;;;11.10;99.90;;;;;;5000590;28;20491;-88
2023/04/29 01:37:20;;;;;;;11.20;7.88;;;11.20;99.90;;;;;;5004811;28;20065;-83
2023/04/29 01:40:18;;;;;;;8.70;7.00;;;11.10;99.90;;;;;;4998136;28;20101;-88
2023/04/29 01:43:10;;;;;;;13.27;7.43;;;11.00;99.90;;;;;;4994081;28;20082;-88
2023/04/29 01:46:03;;;;;;;12.30;7.70;;;10.80;99.90;;;;;;4997424;28;20613;-87
2023/04/29 01:48:55;;;;;;;9.27;7.18;;;10.80;99.90;;;;;;4994505;28;20058;-87
2023/04/29 01:51:43;;;;;;;8.48;7.07;;;10.60;99.90;;;;;;4996515;28;20054;-86
2023/04/29 01:54:30;;;;;;;8.05;6.32;;;10.70;99.90;;;;;;5004071;28;20067;-87
2023/04/29 01:57:20;;;;;;;9.48;6.93;;;10.70;99.90;;;;;;4993670;28;20080;-86
2023/04/29 02:00:08;;;;;;;9.73;7.65;;;10.70;99.90;;;;;;4978039;28;20096;-87
2023/04/29 02:02:55;;;;;;;8.13;7.32;;;10.70;99.90;;;;;;4992896;28;20042;-88
2023/04/29 02:05:45;;;;;;;8.95;7.35;;;10.70;99.90;;;;;;4976213;28;20160;-87
2023/04/29 02:08:32;;;;;;;9.85;7.82;;;10.60;99.90;;;;;;4980917;28;20077;-89
2023/04/29 02:11:20;;;;;;;11.40;8.88;;;10.60;99.90;;;;;;4980261;28;20125;-88
2023/04/29 02:14:07;;;;;;;11.45;9.10;;;10.60;99.90;;;;;;4993537;28;20473;-89
2023/04/29 02:16:54;;;;;;;11.40;9.35;;;10.60;99.90;;;;;;4998777;28;20162;-88
2023/04/29 02:19:43;;;;;;;9.15;8.25;;;10.50;99.90;;;;;;4998171;28;20053;-88
2023/04/29 02:22:31;;;;;;;12.65;8.23;;;10.40;99.90;;;;;;5000201;28;20525;-89
2023/04/29 02:25:18;;;;;;;13.05;9.02;;;10.30;99.90;;;;;;4993628;28;20113;-88
2023/04/29 02:28:05;;;;;;;11.93;9.23;;;10.40;99.90;;;;;;4988796;28;20058;-87
2023/04/29 02:30:55;;;;;;;15.40;9.32;;;10.40;99.90;;;;;;4988927;28;20161;-90
2023/04/29 02:33:45;;;;;;;11.73;8.20;;;10.40;99.90;;;;;;4995757;28;20061;-89
2023/04/29 02:36:33;;;;;;;12.05;9.35;;;10.40;99.90;;;;;;4979259;28;20610;-86
2023/04/29 02:39:21;;;;;;;10.82;9.02;;;10.30;99.90;;;;;;4975166;28;20064;-87
2023/04/29 02:42:08;;;;;;;14.60;8.68;;;10.30;99.90;;;;;;4995241;28;20046;-87
2023/04/29 02:44:55;;;;;;;11.73;9.75;;;10.20;99.90;;;;;;4978491;28;20130;-87
2023/04/29 02:47:42;;;;;;;12.93;8.75;;;10.30;99.90;;;;;;4991656;28;20077;-87
2023/04/29 02:50:32;;;;;;;10.57;8.55;;;10.20;99.90;;;;;;4994675;28;20050;-90
2023/04/29 02:53:19;;;;;;;12.63;9.35;;;10.30;99.90;;;;;;5004432;28;20081;-87
2023/04/29 02:56:09;;;;;;;15.48;9.75;;;10.30;99.90;;;;;;4991162;28;20042;-88
2023/04/29 02:58:56;;;;;;;19.63;10.52;;;10.40;99.90;;;;;;4998673;28;20054;-89
2023/04/29 03:01:43;;;;;;;11.75;10.45;;;10.40;99.90;;;;;;4967984;28;20054;-86
2023/04/29 03:04:35;;;;;;;15.73;9.30;;;10.30;99.90;;;;;;4995390;28;20057;-87
2023/04/29 03:07:22;;;;;;;11.95;9.55;;;10.30;99.90;;;;;;5003852;28;20047;-88
2023/04/29 03:10:11;;;;;;;12.73;9.90;;;10.20;99.90;;;;;;4995405;28;20050;-89
2023/04/29 03:12:58;;;;;;;14.32;9.85;;;10.20;99.90;;;;;;4995825;28;20501;-87
2023/04/29 03:15:45;;;;;;;12.10;9.73;;;10.20;99.90;;;;;;4999539;28;20077;-90
2023/04/29 03:18:35;;;;;;;14.32;10.32;;;10.10;99.90;;;;;;4994680;28;20129;-90
2023/04/29 03:21:25;;;;;;;17.73;11.55;;;10.20;99.90;;;;;;5006831;28;20123;-88
2023/04/29 03:24:12;;;;;;;22.67;13.48;;;10.20;99.90;;;;;;4994181;28;20093;-86
2023/04/29 03:27:00;;;;;;;16.08;12.55;;;10.20;99.90;;;;;;4983056;28;20363;-89
2023/04/29 03:29:49;;;;;;;16.83;12.90;;;10.10;99.90;;;;;;4973438;28;20050;-87
2023/04/29 03:32:37;;;;;;;15.40;13.30;;;10.00;99.90;;;;;;4995227;28;20050;-90
2023/04/29 03:35:24;;;;;;;14.70;12.15;;;10.00;99.90;;;;;;4999424;28;20069;-88
2023/04/29 03:38:12;;;;;;;15.20;11.85;;;10.00;99.90;;;;;;5009283;28;20041;-87
2023/04/29 03:40:59;;;;;;;16.27;12.52;;;10.00;99.90;;;;;;5008671;28;20121;-86
2023/04/29 03:43:46;;;;;;;14.75;11.85;;;10.10;99.90;;;;;;5012538;28;20050;-90
2023/04/29 03:46:34;;;;;;;18.35;12.18;;;10.20;99.90;;;;;;4989676;28;20062;-88
2023/04/29 03:49:24;;;;;;;14.38;11.07;;;10.30;99.90;;;;;;4999558;28;20050;-87
2023/04/29 03:52:11;;;;;;;16.33;12.30;;;10.30;99.90;;;;;;4997863;28;20094;-89
2023/04/29 03:54:58;;;;;;;14.57;11.18;;;10.40;99.90;;;;;;5005140;28;20081;-89
2023/04/29 03:57:45;;;;;;;17.35;12.05;;;10.40;99.90;;;;;;4984491;28;20046;-89
2023/04/29 04:00:33;;;;;;;12.73;11.30;;;10.40;99.90;;;;;;5004854;28;20105;-89
2023/04/29 04:03:21;;;;;;;16.35;12.15;;;10.40;99.90;;;;;;4989892;28;20046;-90
2023/04/29 04:06:17;;;;;;;14.27;11.93;;;10.30;99.90;;;;;;4986400;28;20053;-90
2023/04/29 04:09:06;;;;;;;17.10;11.77;;;10.20;99.90;;;;;;4986111;28;20077;-86
2023/04/29 04:11:54;;;;;;;14.82;11.13;;;10.00;99.90;;;;;;5001604;28;20489;-87
2023/04/29 04:14:43;;;;;;;12.90;9.57;;;9.80;99.90;;;;;;4989978;28;20057;-89
2023/04/29 04:17:32;;;;;;;12.50;9.90;;;9.60;99.90;;;;;;5000015;28;20517;-86
2023/04/29 04:20:19;;;;;;;15.27;10.70;;;9.50;99.90;;;;;;5007044;28;20049;-89
2023/04/29 04:23:06;;;;;;;12.80;10.25;;;9.40;99.90;;;;;;4997043;28;20102;-88
2023/04/29 04:25:53;;;;;;;14.55;12.00;;;9.40;99.90;;;;;;5017050;28;20077;-88
2023/04/29 04:28:40;;;;;;;20.67;12.07;;;9.40;99.90;;;;;;5005556;28;20680;-87
2023/04/29 04:31:30;;;;;;;15.45;11.75;;;9.50;99.90;;;;;;4988108;28;20452;-90
2023/04/29 04:34:17;;;;;;;17.40;12.38;;;9.40;99.90;;;;;;4997359;28;20061;-88
2023/04/29 04:37:05;;;;;;;18.77;12.05;;;9.40;99.90;;;;;;4991208;28;20057;-88
2023/04/29 04:39:52;;;;;;;18.60;14.00;;;9.50;99.90;;;;;;4997367;28;20389;-88
2023/04/29 04:42:45;;;;;;;19.83;13.52;;;9.50;99.90;;;;;;4978367;28;20042;-87
2023/04/29 04:45:33;;;;;;;18.98;13.07;;;9.60;99.90;;;;;;5000841;28;20042;-91
2023/04/29 04:48:20;;;;;;;16.63;13.93;;;9.50;99.90;;;;;;4981820;28;20060;-85
2023/04/29 04:51:09;;;;;;;21.33;16.17;;;9.50;99.90;;;;;;4995906;28;20043;-85
2023/04/29 04:53:56;;;;;;;22.75;16.15;;;9.50;99.90;;;;;;4982237;28;20060;-85
2023/04/29 04:56:44;;;;;;;23.63;16.58;;;9.60;99.90;;;;;;4974203;28;20043;-86
2023/04/29 04:59:31;;;;;;;30.20;18.58;;;9.60;99.90;;;;;;5000082;28;20050;-84
2023/04/29 05:02:18;;;;;;;22.65;17.20;;;9.60;99.90;;;;;;4999928;28;20083;-85
2023/04/29 05:05:08;;;;;;;24.80;17.20;;;9.60;99.90;;;;;;4974976;28;20061;-85
2023/04/29 05:07:57;;;;;;;22.83;16.85;;;9.60;99.90;;;;;;5007513;28;20050;-86
2023/04/29 05:10:45;;;;;;;20.70;17.38;;;9.70;99.90;;;;;;4980801;28;20065;-84
2023/04/29 05:13:33;;;;;;;20.40;16.00;;;9.70;99.90;;;;;;4991212;28;20054;-83
2023/04/29 05:16:20;;;;;;;22.25;16.13;;;9.80;99.90;;;;;;4995746;28;20175;-83
2023/04/29 05:19:12;;;;;;;22.55;15.98;;;9.80;99.90;;;;;;4981390;28;20085;-84
2023/04/29 05:22:01;;;;;;;18.40;15.93;;;9.90;99.90;;;;;;4994014;28;20092;-84
2023/04/29 05:24:54;;;;;;;20.23;15.73;;;10.00;99.90;;;;;;4982191;28;20705;-85
2023/04/29 05:27:41;;;;;;;21.30;16.13;;;10.00;99.90;;;;;;4994036;28;20058;-87
2023/04/29 05:30:28;;;;;;;21.23;16.33;;;10.10;99.90;;;;;;4983130;28;20050;-87
2023/04/29 05:33:15;;;;;;;20.10;15.75;;;10.20;99.90;;;;;;4993721;28;20069;-86
2023/04/29 05:36:05;;;;;;;21.80;15.80;;;10.20;99.90;;;;;;4993728;28;20039;-86
2023/04/29 05:38:52;;;;;;;20.48;16.17;;;10.20;99.90;;;;;;4981820;28;20046;-86
2023/04/29 05:41:42;;;;;;;21.92;16.15;;;10.30;99.90;;;;;;4991478;28;20047;-86
2023/04/29 05:44:29;;;;;;;21.73;16.27;;;10.30;99.90;;;;;;4997300;28;20058;-87
2023/04/29 05:47:16;;;;;;;16.92;14.23;;;10.30;99.90;;;;;;4996826;28;20102;-85
2023/04/29 05:50:04;;;;;;;20.75;15.73;;;10.40;99.90;;;;;;5005422;28;20042;-86
2023/04/29 05:52:53;;;;;;;17.45;14.10;;;10.40;99.90;;;;;;4981129;28;20054;-85
2023/04/29 05:55:43;;;;;;;18.40;13.15;;;10.50;99.90;;;;;;4994366;28;20058;-86
2023/04/29 05:58:30;;;;;;;13.63;11.60;;;10.60;99.90;;;;;;4996545;28;20064;-87
2023/04/29 06:01:20;;;;;;;11.43;9.55;;;10.60;99.90;;;;;;4998849;28;20508;-86
2023/04/29 06:04:07;;;;;;;10.57;8.30;;;10.70;99.90;;;;;;4981503;28;20057;-84
2023/04/29 06:06:58;;;;;;;8.20;7.25;;;10.80;99.90;;;;;;4996600;28;20042;-89
2023/04/29 06:09:47;;;;;;;6.63;5.78;;;10.90;99.90;;;;;;4992892;28;20047;-87
2023/04/29 06:12:35;;;;;;;7.35;5.72;;;10.90;99.90;;;;;;4995331;28;20046;-89
2023/04/29 06:15:22;;;;;;;5.78;5.28;;;11.10;99.90;;;;;;4995473;28;20087;-88
2023/04/29 06:18:09;;;;;;;5.10;4.32;;;11.10;99.90;;;;;;5005213;28;20060;-87
2023/04/29 06:20:56;;;;;;;10.02;4.50;;;11.20;99.90;;;;;;4986659;28;20050;-88
2023/04/29 06:23:44;;;;;;;4.57;3.42;;;11.40;99.90;;;;;;4992560;28;20166;-88
2023/04/29 06:26:33;;;;;;;5.93;3.30;;;11.50;99.90;;;;;;5005756;28;20046;-85
2023/04/29 06:29:20;;;;;;;4.13;3.20;;;11.70;99.90;;;;;;5010489;28;20046;-88
2023/04/29 06:32:21;;;;;;;4.35;3.00;;;12.00;99.90;;;;;;4994090;28;20038;-89
2023/04/29 06:35:09;;;;;;;3.78;2.85;;;12.20;99.90;;;;;;5003270;28;20057;-89
2023/04/29 06:37:58;;;;;;;7.85;2.78;;;12.30;99.90;;;;;;4985066;28;20046;-88
2023/04/29 06:40:45;;;;;;;4.38;2.33;;;12.30;99.90;;;;;;5011494;28;20046;-88
2023/04/29 06:43:32;;;;;;;4.50;2.70;;;12.30;99.90;;;;;;5005524;28;20088;-89
2023/04/29 06:46:20;;;;;;;3.67;2.42;;;12.30;99.90;;;;;;5000729;28;20461;-88
2023/04/29 06:49:11;;;;;;;2.45;2.10;;;12.30;99.90;;;;;;4997382;28;20046;-86
2023/04/29 06:52:00;;;;;;;3.85;2.50;;;12.30;99.90;;;;;;4994343;28;20093;-84
2023/04/29 06:54:54;;;;;;;3.25;2.75;;;12.30;99.90;;;;;;4999058;28;20041;-87
2023/04/29 06:57:44;;;;;;;4.82;2.55;;;12.30;99.90;;;;;;5002379;28;20046;-84
2023/04/29 07:00:31;;;;;;;2.50;2.30;;;12.50;99.90;;;;;;5007165;28;20496;-85
2023/04/29 07:11:04;;;;;;;2.72;1.65;;;13.30;1.00;;;;;;5006249;28;20102;-89
2023/04/29 07:13:52;;;;;;;2.38;1.88;;;13.30;99.90;;;;;;4984293;28;20047;-88
2023/04/29 07:16:41;;;;;;;3.47;2.10;;;13.30;99.90;;;;;;4996040;28;20465;-88
2023/04/29 07:19:30;;;;;;;3.72;1.63;;;13.30;99.90;;;;;;5011700;28;20074;-89
2023/04/29 07:22:17;;;;;;;1.65;1.50;;;13.40;1.00;;;;;;5004308;28;20050;-88
2023/04/29 07:25:07;;;;;;;3.72;1.40;;;14.20;99.90;;;;;;4990298;28;20070;-86
2023/04/29 07:27:55;;;;;;;2.08;1.45;;;14.50;99.90;;;;;;5000624;28;20054;-85
2023/04/29 07:31:24;;;;;;;1.90;1.17;;;14.70;99.90;;;;;;4999577;28;20077;-89
2023/04/29 07:34:16;;;;;;;1.60;1.20;;;14.90;99.90;;;;;;4985676;28;20070;-88
2023/04/29 07:37:21;;;;;;;2.15;1.00;;;15.60;1.00;;;;;;5005718;28;20101;-88
2023/04/29 07:40:14;;;;;;;1.33;1.23;;;16.00;99.90;;;;;;4987727;28;20053;-89
2023/04/29 07:43:05;;;;;;;2.25;1.10;;;16.10;99.90;;;;;;4983877;28;20053;-90
2023/04/29 07:45:55;;;;;;;1.13;1.00;;;16.50;99.90;;;;;;4988494;28;20579;-91
2023/04/29 07:48:51;;;;;;;1.58;1.35;;;16.70;99.90;;;;;;4999628;28;20132;-88
2023/04/29 07:51:56;;;;;;;1.75;1.10;;;16.40;99.90;;;;;;5011999;28;20038;-84
2023/04/29 07:54:44;;;;;;;3.80;1.30;;;16.40;31.20;;;;;;5010667;28;20042;-88
2023/04/29 07:57:45;;;;;;;;;;;;;;;;;;;;;
2023/04/29 08:00:55;;;;;;;2.78;1.10;;;16.20;1.00;;;;;;4997937;28;20049;-88
2023/04/29 08:03:48;;;;;;;1.63;1.20;;;16.10;1.00;;;;;;5001245;28;20038;-85
2023/04/29 08:06:56;;;;;;;1.52;1.38;;;16.20;1.00;;;;;;4999398;28;20153;-91
2023/04/29 08:09:54;;;;;;;3.05;1.73;;;16.60;1.00;;;;;;4996240;28;20081;-92
2023/04/29 08:13:02;;;;;;;1.73;1.45;;;16.90;1.00;;;;;;4954561;28;20046;-87
2023/04/29 08:15:56;;;;;;;1.55;1.45;;;17.10;1.00;;;;;;5002925;28;20145;-87
2023/04/29 08:19:05;;;;;;;1.48;1.20;;;17.20;1.00;;;;;;4993752;28;20050;-87
2023/04/29 08:22:06;;;;;;;2.00;1.60;;;16.90;1.00;;;;;;4997114;28;20484;-88
2023/04/29 08:24:57;;;;;;;1.85;1.63;;;17.20;1.00;;;;;;5005995;28;20046;-88
2023/04/29 08:27:45;;;;;;;2.28;1.67;;;17.00;1.00;;;;;;4999783;28;20105;-87
2023/04/29 08:30:35;;;;;;;1.30;1.20;;;16.50;99.90;;;;;;4983591;28;20058;-89
2023/04/29 08:33:25;;;;;;;2.40;1.20;;;16.30;99.90;;;;;;4982766;28;20061;-89
2023/04/29 08:36:16;;;;;;;1.42;1.30;;;16.30;99.90;;;;;;4983489;28;20046;-89
2023/04/29 08:39:04;;;;;;;1.35;1.25;;;16.50;99.90;;;;;;4998574;28;20458;-89
2023/04/29 08:41:52;;;;;;;1.20;1.10;;;16.60;99.90;;;;;;4996878;28;20054;-89
2023/04/29 08:44:40;;;;;;;2.05;1.20;;;16.90;99.90;;;;;;5000838;28;20042;-90
2023/04/29 08:47:32;;;;;;;2.17;1.67;;;17.10;99.90;;;;;;5001557;28;20037;-87
2023/04/29 08:50:22;;;;;;;2.00;1.40;;;17.60;99.90;;;;;;4997361;28;20042;-90
2023/04/29 08:53:12;;;;;;;1.65;1.55;;;18.80;99.90;;;;;;4997385;28;20034;-87
2023/04/29 08:56:10;;;;;;;1.35;1.25;;;18.90;99.90;;;;;;5000446;28;20042;-90
2023/04/29 08:59:00;;;;;;;1.35;1.10;;;18.80;99.90;;;;;;5005110;28;20050;-86
2023/04/29 09:01:52;;;;;;;1.10;1.00;;;19.10;99.90;;;;;;5007096;28;20050;-89
2023/04/29 09:04:45;;;;;;;4.50;2.47;;;19.00;99.90;;;;;;5001310;28;20046;-89
2023/04/29 09:07:33;;;;;;;10.02;4.05;;;18.00;99.90;;;;;;4987561;28;20069;-89
2023/04/29 09:10:20;;;;;;;6.20;3.65;;;17.60;99.90;;;;;;5005091;28;20497;-87
2023/04/29 09:13:08;;;;;;;3.25;1.85;;;17.70;99.90;;;;;;4985997;28;20048;-85
2023/04/29 09:15:55;;;;;;;1.83;1.10;;;17.70;99.90;;;;;;4996182;28;20393;-88
2023/04/29 09:18:46;;;;;;;1.52;1.10;;;18.10;99.90;;;;;;4994012;28;20046;-85
2023/04/29 09:21:34;;;;;;;0.70;0.70;;;19.10;99.90;;;;;;5001116;28;20086;-89
2023/04/29 09:24:28;;;;;;;1.40;0.90;;;19.90;99.90;;;;;;4985488;28;20481;-88
2023/04/29 09:27:30;;;;;;;1.35;1.00;;;20.00;99.90;;;;;;4997338;28;20046;-86
2023/04/29 09:30:18;;;;;;;1.08;0.93;;;19.90;99.90;;;;;;4996792;28;20065;-87
2023/04/29 09:33:09;;;;;;;2.13;1.15;;;19.80;99.90;;;;;;4980590;28;20053;-86
2023/04/29 09:35:57;;;;;;;1.10;1.00;;;19.40;99.90;;;;;;4981450;28;20156;-88
2023/04/29 09:38:57;;;;;;;1.33;1.15;;;19.20;99.90;;;;;;4994807;28;20130;-89
2023/04/29 09:41:53;;;;;;;1.85;1.65;;;19.30;99.90;;;;;;4992438;28;20054;-87
2023/04/29 09:44:43;;;;;;;2.75;1.85;;;19.00;99.90;;;;;;4981772;28;20053;-87
2023/04/29 09:47:31;;;;;;;3.22;1.33;;;18.80;99.90;;;;;;4997872;28;20457;-89
2023/04/29 09:50:21;;;;;;;1.42;1.33;;;19.60;99.90;;;;;;4997483;28;20497;-90
2023/04/29 09:53:13;;;;;;;3.28;1.40;;;21.10;99.90;;;;;;4986071;28;20058;-88
2023/04/29 09:56:04;;;;;;;1.70;0.90;;;22.50;99.90;;;;;;4998258;28;20046;-90
2023/04/29 09:58:51;;;;;;;2.17;1.33;;;22.50;99.90;;;;;;4996001;28;20058;-86
2023/04/29 10:01:38;;;;;;;3.40;1.15;;;21.20;99.90;;;;;;4989260;28;20050;-87
2023/04/29 10:04:26;;;;;;;1.35;1.10;;;20.00;99.90;;;;;;4998749;28;20049;-88
2023/04/29 10:07:16;;;;;;;1.83;1.23;;;19.20;99.90;;;;;;4998036;28;20043;-88
2023/04/29 10:10:07;;;;;;;1.48;1.38;;;18.50;99.90;;;;;;4977594;28;20362;-89
2023/04/29 10:12:55;;;;;;;5.18;1.88;;;17.80;99.90;;;;;;4994489;28;20046;-87
2023/04/29 10:15:51;;;;;;;4.07;1.75;;;17.50;99.90;;;;;;4991173;28;20058;-90
2023/04/29 10:18:43;;;;;;;3.50;1.48;;;18.60;99.90;;;;;;4994760;28;20046;-88
2023/04/29 10:21:30;;;;;;;1.67;1.45;;;20.30;99.90;;;;;;4996002;28;20042;-88
2023/04/29 10:24:18;;;;;;;1.58;1.10;;;22.30;99.90;;;;;;4987570;28;20120;-88
2023/04/29 10:27:12;;;;;;;1.92;1.15;;;23.40;99.90;;;;;;4989787;28;20132;-89
2023/04/29 10:30:01;;;;;;;1.13;0.90;;;23.70;99.90;;;;;;4991055;28;20042;-88
2023/04/29 10:32:51;;;;;;;1.00;0.90;;;23.90;99.90;;;;;;4993474;28;20069;-88
2023/04/29 10:35:42;;;;;;;1.67;1.15;;;23.70;99.20;;;;;;4991394;28;20043;-86
2023/04/29 10:38:35;;;;;;;2.58;1.40;;;23.20;89.10;;;;;;4987692;28;20062;-88
2023/04/29 10:41:29;;;;;;;1.40;1.30;;;22.90;85.70;;;;;;4993418;28;20465;-88
2023/04/29 10:44:19;;;;;;;2.75;1.02;;;22.10;88.90;;;;;;4985655;28;20082;-87
2023/04/29 10:47:19;;;;;;;1.92;1.38;;;22.00;93.00;;;;;;4991590;28;20051;-87
2023/04/29 10:50:07;;;;;;;1.52;1.17;;;22.70;88.60;;;;;;4984401;28;20050;-87
2023/04/29 10:52:57;;;;;;;1.00;0.90;;;23.60;69.30;;;;;;4989083;28;20046;-88
2023/04/29 10:55:58;;;;;;;3.90;1.00;;;24.20;57.80;;;;;;4999384;28;20042;-87
2023/04/29 10:58:46;;;;;;;2.03;1.17;;;24.80;72.60;;;;;;4973214;28;20056;-87
2023/04/29 11:01:52;;;;;;;1.58;1.00;;;24.90;51.50;;;;;;4992434;28;20121;-87
2023/04/29 11:05:14;;;;;;;4.20;0.88;;;25.70;36.80;;;;;;4977252;28;20144;-90
2023/04/29 11:08:21;;;;;;;1.80;1.02;;;26.20;24.10;;;;;;4980925;28;20066;-88
2023/04/29 11:11:09;;;;;;;2.47;1.30;;;24.00;14.60;;;;;;4981012;28;20057;-88
2023/04/29 11:13:56;;;;;;;2.05;1.20;;;23.90;19.60;;;;;;4989715;28;20549;-88
2023/04/29 11:17:03;;;;;;;1.30;1.20;;;24.80;14.50;;;;;;4997493;28;20421;-89
2023/04/29 11:19:51;;;;;;;2.15;1.33;;;23.90;6.30;;;;;;4994631;28;20042;-90
2023/04/29 11:22:39;;;;;;;2.03;1.40;;;22.40;9.10;;;;;;4987327;28;20377;-86
2023/04/29 11:25:29;;;;;;;1.90;1.65;;;21.90;7.70;;;;;;4995210;28;20070;-88
2023/04/29 11:28:20;;;;;;;3.40;1.30;;;21.20;8.40;;;;;;4997646;28;20062;-90
2023/04/29 11:31:07;;;;;;;2.53;1.40;;;21.90;15.50;;;;;;4994568;28;20066;-91
2023/04/29 11:33:55;;;;;;;2.22;1.63;;;23.50;9.20;;;;;;4999195;28;20047;-86
2023/04/29 11:36:42;;;;;;;2.40;1.50;;;25.10;4.00;;;;;;4996356;28;20050;-85
2023/04/29 11:39:34;;;;;;;2.38;1.20;;;25.90;1.00;;;;;;5010525;28;20078;-85
2023/04/29 11:42:22;;;;;;;2.05;1.45;;;26.30;1.00;;;;;;5009596;28;20054;-87
2023/04/29 11:45:09;;;;;;;2.10;1.25;;;26.90;1.00;;;;;;4987127;28;20047;-88
2023/04/29 11:47:59;;;;;;;2.53;1.30;;;26.50;1.00;;;;;;5000829;28;20125;-91
2023/04/29 11:50:50;;;;;;;2.50;1.60;;;26.20;1.00;;;;;;4993797;28;20041;-88
2023/04/29 11:53:37;;;;;;;2.08;1.40;;;25.40;1.00;;;;;;4996195;28;20466;-90
2023/04/29 11:56:24;;;;;;;2.90;1.80;;;25.70;1.00;;;;;;4975670;28;20410;-88
2023/04/29 11:59:12;;;;;;;3.55;1.40;;;26.00;1.00;;;;;;4997188;28;20065;-86
2023/04/29 12:01:59;;;;;;;1.20;1.10;;;26.10;1.00;;;;;;4993119;28;20046;-84
2023/04/29 12:04:47;;;;;;;3.08;1.50;;;26.10;1.00;;;;;;4986632;28;20065;-88
2023/04/29 12:07:35;;;;;;;2.65;1.30;;;26.40;1.00;;;;;;4996556;28;20050;-86
2023/04/29 12:10:23;;;;;;;4.13;1.30;;;26.10;1.00;;;;;;4999738;28;20129;-87
2023/04/29 12:13:11;;;;;;;4.32;1.60;;;24.70;1.00;;;;;;4992982;28;20046;-87
2023/04/29 12:16:01;;;;;;;6.13;1.80;;;23.20;1.00;;;;;;4998309;28;20065;-88
2023/04/29 12:18:49;;;;;;;2.03;1.55;;;21.90;1.00;;;;;;5010854;28;20102;-89
2023/04/29 12:21:46;;;;;;;1.10;1.00;;;21.30;1.00;;;;;;5002279;28;20058;-90
2023/04/29 12:24:35;;;;;;;3.08;1.30;;;21.00;1.00;;;;;;4998367;28;20047;-87
2023/04/29 12:27:23;;;;;;;1.33;1.20;;;20.80;1.00;;;;;;4987860;28;20149;-89
2023/04/29 12:30:13;;;;;;;1.63;0.98;;;21.10;1.00;;;;;;5007448;28;20054;-87
2023/04/29 12:33:03;;;;;;;1.80;0.88;;;22.70;1.00;;;;;;5009394;28;20046;-88
2023/04/29 12:35:52;;;;;;;1.25;1.15;;;23.90;1.00;;;;;;5011855;28;20050;-81
2023/04/29 12:38:41;;;;;;;2.75;1.40;;;24.90;1.00;;;;;;5018517;28;20092;-86
2023/04/29 12:41:39;;;;;;;3.63;1.27;;;24.80;1.00;;;;;;4998626;28;20058;-87
2023/04/29 12:44:37;;;;;;;1.65;1.08;;;24.90;1.00;;;;;;4983685;28;20054;-88
2023/04/29 12:47:35;;;;;;;2.03;1.10;;;25.70;1.00;;;;;;4997613;28;20428;-85
2023/04/29 12:50:38;;;;;;;1.30;1.17;;;26.20;1.00;;;;;;5011869;28;20054;-89
2023/04/29 12:53:26;;;;;;;1.17;1.02;;;25.10;1.00;;;;;;5005528;28;20077;-88
2023/04/29 12:56:17;;;;;;;1.75;1.08;;;25.80;1.00;;;;;;4998005;28;20125;-88
2023/04/29 12:59:08;;;;;;;1.90;1.17;;;25.70;1.00;;;;;;5001754;28;20069;-89
2023/04/29 13:01:58;;;;;;;2.92;1.70;;;27.10;1.00;;;;;;5003341;28;20112;-89
2023/04/29 13:04:46;;;;;;;4.25;2.35;;;27.20;1.00;;;;;;4980302;28;20052;-85
2023/04/29 13:07:33;;;;;;;3.05;2.00;;;27.30;1.00;;;;;;4985987;28;20065;-89
2023/04/29 13:10:21;;;;;;;4.88;2.00;;;25.10;1.00;;;;;;4996432;28;20393;-88
2023/04/29 13:13:11;;;;;;;4.60;2.60;;;24.10;1.00;;;;;;4982203;28;20046;-89
2023/04/29 13:16:03;;;;;;;5.45;2.53;;;22.60;1.00;;;;;;4996811;28;20046;-86
2023/04/29 13:18:50;;;;;;;4.00;2.72;;;21.60;1.00;;;;;;4986787;28;20363;-88
2023/04/29 13:21:57;;;;;;;3.78;3.22;;;20.90;1.00;;;;;;4997316;28;20042;-87
2023/04/29 13:24:45;;;;;;;4.45;3.20;;;21.10;1.00;;;;;;4994753;28;20058;-83
2023/04/29 13:27:36;;;;;;;6.65;3.10;;;21.20;1.00;;;;;;4989504;28;20058;-89
2023/04/29 13:30:25;;;;;;;3.75;2.60;;;21.10;1.00;;;;;;4990668;28;20162;-87
2023/04/29 13:33:13;;;;;;;3.40;2.90;;;21.00;1.00;;;;;;4998327;28;20150;-87
2023/04/29 13:36:04;;;;;;;6.53;3.38;;;20.90;1.00;;;;;;4996641;28;20139;-86
2023/04/29 13:38:51;;;;;;;5.07;3.72;;;21.00;1.00;;;;;;5007816;28;20054;-86
2023/04/29 13:41:41;;;;;;;4.47;2.75;;;21.30;1.00;;;;;;4978116;28;20098;-87
2023/04/29 13:44:33;;;;;;;3.03;2.30;;;23.00;1.00;;;;;;4982370;28;20073;-87
2023/04/29 13:47:37;;;;;;;3.35;2.28;;;24.90;1.00;;;;;;4984545;28;20136;-88
2023/04/29 13:50:47;;;;;;;3.22;2.28;;;24.70;1.00;;;;;;4983694;28;20077;-89
2023/04/29 13:53:55;;;;;;;4.03;2.33;;;23.90;1.00;;;;;;4993573;28;20137;-86
2023/04/29 13:57:03;;;;;;;3.38;2.33;;;23.30;1.00;;;;;;4994855;28;20046;-89
2023/04/29 14:00:14;;;;;;;3.50;2.15;;;24.20;1.00;;;;;;4999173;28;20046;-86
2023/04/29 14:03:21;;;;;;;4.20;3.20;;;25.60;1.00;;;;;;5007022;28;20045;-87
2023/04/29 14:06:25;;;;;;;3.53;2.97;;;26.00;1.00;;;;;;4999202;28;20038;-87
2023/04/29 14:09:12;;;;;;;5.85;3.60;;;25.20;1.00;;;;;;4997110;28;20047;-88
2023/04/29 14:12:02;;;;;;;5.10;4.32;;;24.70;1.00;;;;;;5013654;28;20094;-86
2023/04/29 14:14:49;;;;;;;7.13;4.43;;;24.90;1.00;;;;;;5007927;28;20058;-88
2023/04/29 14:17:36;;;;;;;5.88;4.32;;;24.90;1.00;;;;;;5014272;28;20055;-81
2023/04/29 14:20:26;;;;;;;4.57;3.70;;;24.90;1.00;;;;;;5002363;28;20090;-82
2023/04/29 14:23:13;;;;;;;4.35;3.35;;;25.20;1.00;;;;;;5020768;28;20042;-89
2023/04/29 14:26:05;;;;;;;6.22;3.80;;;25.10;1.00;;;;;;5026436;28;20062;-89
2023/04/29 14:29:14;;;;;;;7.40;4.45;;;25.50;1.00;;;;;;5016594;28;20042;-85
2023/04/29 14:32:06;;;;;;;7.75;4.70;;;25.00;1.00;;;;;;5015335;28;20057;-87
2023/04/29 14:34:55;;;;;;;5.40;4.90;;;23.40;1.00;;;;;;4996182;28;20046;-88
2023/04/29 14:37:42;;;;;;;7.38;5.03;;;23.20;1.00;;;;;;4996566;28;20473;-91
2023/04/29 14:40:29;;;;;;;5.65;4.90;;;22.80;1.00;;;;;;5003161;28;20054;-88
2023/04/29 14:43:19;;;;;;;5.55;4.80;;;21.60;1.00;;;;;;5001968;28;20038;-87
2023/04/29 14:46:10;;;;;;;7.75;5.30;;;21.40;1.00;;;;;;4996420;28;20369;-87
2023/04/29 14:48:57;;;;;;;6.78;5.18;;;20.70;1.00;;;;;;4996881;28;20042;-88
2023/04/29 14:51:48;;;;;;;7.32;5.65;;;20.30;1.00;;;;;;4997558;28;20070;-87
2023/04/29 14:54:35;;;;;;;7.28;5.63;;;20.40;1.00;;;;;;5001863;28;20481;-90
2023/04/29 14:57:26;;;;;;;8.90;5.03;;;20.90;1.00;;;;;;5002749;28;20050;-91